sensor_id;sensor_type;location;lat;lon;timestamp;P1;durP1;ratioP1;P2;durP2;ratioP2
25846;SDS011;13676;50.168;8.568;2023-03-14T00:00:37;2.92;;;1.10;;
25846;SDS011;13676;50.168;8.568;2023-03-14T00:03:03;3.00;;;1.48;;
25846;SDS011;13676;50.168;8.568;2023-03-14T00:05:28;2.08;;;1.20;;
25846;SDS011;13676;50.168;8.568;2023-03-14T00:07:54;6.43;;;1.40;;
25846;SDS011;13676;50.168;8.568;2023-03-14T00:10:19;2.47;;;1.13;;
25846;SDS011;13676;50.168;8.568;2023-03-14T00:12:46;2.90;;;1.50;;
25846;SDS011;13676;50.168;8.568;2023-03-14T00:15:12;4.15;;;1.60;;
25846;SDS011;13676;50.168;8.568;2023-03-14T00:17:38;4.13;;;1.58;;
25846;SDS011;13676;50.168;8.568;2023-03-14T00:20:04;4.80;;;1.58;;
25846;SDS011;13676;50.168;8.568;2023-03-14T00:22:39;3.38;;;1.83;;
25846;SDS011;13676;50.168;8.568;2023-03-14T00:25:06;3.15;;;1.40;;
25846;SDS011;13676;50.168;8.568;2023-03-14T00:27:32;3.37;;;1.70;;
25846;SDS011;13676;50.168;8.568;2023-03-14T00:29:58;3.10;;;1.50;;
25846;SDS011;13676;50.168;8.568;2023-03-14T00:32:23;3.35;;;1.50;;
25846;SDS011;13676;50.168;8.568;2023-03-14T00:34:49;4.97;;;1.55;;
25846;SDS011;13676;50.168;8.568;2023-03-14T00:37:14;3.47;;;1.70;;
25846;SDS011;13676;50.168;8.568;2023-03-14T00:39:39;7.72;;;1.75;;
25846;SDS011;13676;50.168;8.568;2023-03-14T00:42:05;2.95;;;1.35;;
25846;SDS011;13676;50.168;8.568;2023-03-14T00:44:30;3.80;;;1.40;;
25846;SDS011;13676;50.168;8.568;2023-03-14T00:46:56;6.28;;;1.60;;
25846;SDS011;13676;50.168;8.568;2023-03-14T00:49:22;4.30;;;1.73;;
25846;SDS011;13676;50.168;8.568;2023-03-14T00:51:47;4.38;;;1.75;;
25846;SDS011;13676;50.168;8.568;2023-03-14T00:54:13;3.83;;;1.50;;
25846;SDS011;13676;50.168;8.568;2023-03-14T00:56:38;3.20;;;1.35;;
25846;SDS011;13676;50.168;8.568;2023-03-14T00:59:03;4.05;;;1.50;;
25846;SDS011;13676;50.168;8.568;2023-03-14T01:01:29;3.53;;;1.35;;
25846;SDS011;13676;50.168;8.568;2023-03-14T01:03:54;6.20;;;1.52;;
25846;SDS011;13676;50.168;8.568;2023-03-14T01:06:24;7.32;;;1.50;;
25846;SDS011;13676;50.168;8.568;2023-03-14T01:08:51;4.03;;;1.25;;
25846;SDS011;13676;50.168;8.568;2023-03-14T01:11:17;4.35;;;1.45;;
25846;SDS011;13676;50.168;8.568;2023-03-14T01:13:45;5.47;;;1.52;;
25846;SDS011;13676;50.168;8.568;2023-03-14T01:16:11;6.72;;;1.73;;
25846;SDS011;13676;50.168;8.568;2023-03-14T01:18:38;2.45;;;1.17;;
25846;SDS011;13676;50.168;8.568;2023-03-14T01:21:09;4.60;;;1.40;;
25846;SDS011;13676;50.168;8.568;2023-03-14T01:23:45;6.18;;;1.80;;
25846;SDS011;13676;50.168;8.568;2023-03-14T01:26:11;6.70;;;1.75;;
25846;SDS011;13676;50.168;8.568;2023-03-14T01:28:38;9.32;;;1.67;;
25846;SDS011;13676;50.168;8.568;2023-03-14T01:31:04;5.07;;;1.40;;
25846;SDS011;13676;50.168;8.568;2023-03-14T01:33:31;7.13;;;1.98;;
25846;SDS011;13676;50.168;8.568;2023-03-14T01:35:56;7.20;;;1.70;;
25846;SDS011;13676;50.168;8.568;2023-03-14T01:38:21;7.20;;;1.50;;
25846;SDS011;13676;50.168;8.568;2023-03-14T01:40:47;7.32;;;1.90;;
25846;SDS011;13676;50.168;8.568;2023-03-14T01:43:14;8.18;;;1.85;;
25846;SDS011;13676;50.168;8.568;2023-03-14T01:48:39;4.50;;;1.70;;
25846;SDS011;13676;50.168;8.568;2023-03-14T01:51:07;7.75;;;1.92;;
25846;SDS011;13676;50.168;8.568;2023-03-14T01:53:37;10.35;;;1.80;;
25846;SDS011;13676;50.168;8.568;2023-03-14T01:56:04;8.80;;;1.67;;
25846;SDS011;13676;50.168;8.568;2023-03-14T01:58:30;5.50;;;1.60;;
25846;SDS011;13676;50.168;8.568;2023-03-14T02:00:57;5.67;;;1.80;;
25846;SDS011;13676;50.168;8.568;2023-03-14T02:03:23;8.17;;;1.70;;
25846;SDS011;13676;50.168;8.568;2023-03-14T02:05:49;7.47;;;1.60;;
25846;SDS011;13676;50.168;8.568;2023-03-14T02:08:16;6.53;;;1.70;;
25846;SDS011;13676;50.168;8.568;2023-03-14T02:10:44;4.82;;;1.60;;
25846;SDS011;13676;50.168;8.568;2023-03-14T02:13:12;10.18;;;2.10;;
25846;SDS011;13676;50.168;8.568;2023-03-14T02:15:39;3.97;;;1.65;;
25846;SDS011;13676;50.168;8.568;2023-03-14T02:18:05;9.15;;;1.60;;
25846;SDS011;13676;50.168;8.568;2023-03-14T02:20:34;5.18;;;1.60;;
25846;SDS011;13676;50.168;8.568;2023-03-14T02:23:05;7.72;;;1.65;;
25846;SDS011;13676;50.168;8.568;2023-03-14T02:25:51;10.25;;;1.88;;
25846;SDS011;13676;50.168;8.568;2023-03-14T02:30:43;9.27;;;1.60;;
25846;SDS011;13676;50.168;8.568;2023-03-14T02:33:10;8.82;;;1.88;;
25846;SDS011;13676;50.168;8.568;2023-03-14T02:35:40;8.88;;;1.92;;
25846;SDS011;13676;50.168;8.568;2023-03-14T02:38:29;8.32;;;1.77;;
25846;SDS011;13676;50.168;8.568;2023-03-14T02:40:58;11.48;;;2.00;;
25846;SDS011;13676;50.168;8.568;2023-03-14T02:43:23;4.85;;;1.60;;
25846;SDS011;13676;50.168;8.568;2023-03-14T02:45:49;9.57;;;1.75;;
25846;SDS011;13676;50.168;8.568;2023-03-14T02:48:25;5.18;;;1.42;;
25846;SDS011;13676;50.168;8.568;2023-03-14T02:50:53;6.15;;;1.95;;
25846;SDS011;13676;50.168;8.568;2023-03-14T02:53:24;6.25;;;1.35;;
25846;SDS011;13676;50.168;8.568;2023-03-14T02:55:51;10.63;;;1.70;;
25846;SDS011;13676;50.168;8.568;2023-03-14T02:58:17;12.43;;;1.92;;
25846;SDS011;13676;50.168;8.568;2023-03-14T03:00:43;5.60;;;1.75;;
25846;SDS011;13676;50.168;8.568;2023-03-14T03:03:08;7.20;;;1.80;;
25846;SDS011;13676;50.168;8.568;2023-03-14T03:05:34;9.43;;;1.70;;
25846;SDS011;13676;50.168;8.568;2023-03-14T03:07:59;4.05;;;1.60;;
25846;SDS011;13676;50.168;8.568;2023-03-14T03:10:25;5.72;;;1.67;;
25846;SDS011;13676;50.168;8.568;2023-03-14T03:12:51;4.97;;;1.75;;
25846;SDS011;13676;50.168;8.568;2023-03-14T03:15:17;6.43;;;1.83;;
25846;SDS011;13676;50.168;8.568;2023-03-14T03:17:42;14.70;;;2.03;;
25846;SDS011;13676;50.168;8.568;2023-03-14T03:20:08;8.55;;;2.05;;
25846;SDS011;13676;50.168;8.568;2023-03-14T03:22:34;6.50;;;1.60;;
25846;SDS011;13676;50.168;8.568;2023-03-14T03:25:01;7.37;;;2.10;;
25846;SDS011;13676;50.168;8.568;2023-03-14T03:27:26;4.00;;;1.48;;
25846;SDS011;13676;50.168;8.568;2023-03-14T03:29:55;9.48;;;1.77;;
25846;SDS011;13676;50.168;8.568;2023-03-14T03:32:20;8.85;;;1.88;;
25846;SDS011;13676;50.168;8.568;2023-03-14T03:34:45;9.57;;;1.75;;
25846;SDS011;13676;50.168;8.568;2023-03-14T03:37:10;7.68;;;1.77;;
25846;SDS011;13676;50.168;8.568;2023-03-14T03:39:36;11.20;;;2.13;;
25846;SDS011;13676;50.168;8.568;2023-03-14T03:42:01;12.13;;;1.77;;
25846;SDS011;13676;50.168;8.568;2023-03-14T03:44:26;7.90;;;1.90;;
25846;SDS011;13676;50.168;8.568;2023-03-14T03:46:52;10.88;;;2.03;;
25846;SDS011;13676;50.168;8.568;2023-03-14T03:49:17;8.18;;;1.92;;
25846;SDS011;13676;50.168;8.568;2023-03-14T03:51:42;8.93;;;1.60;;
25846;SDS011;13676;50.168;8.568;2023-03-14T03:54:09;4.63;;;1.60;;
25846;SDS011;13676;50.168;8.568;2023-03-14T03:56:34;6.60;;;1.63;;
25846;SDS011;13676;50.168;8.568;2023-03-14T03:58:59;9.50;;;1.88;;
25846;SDS011;13676;50.168;8.568;2023-03-14T04:01:25;7.15;;;1.85;;
25846;SDS011;13676;50.168;8.568;2023-03-14T04:03:50;8.38;;;1.83;;
25846;SDS011;13676;50.168;8.568;2023-03-14T04:06:15;9.38;;;1.98;;
25846;SDS011;13676;50.168;8.568;2023-03-14T04:08:40;4.75;;;1.65;;
25846;SDS011;13676;50.168;8.568;2023-03-14T04:11:06;12.52;;;1.80;;
25846;SDS011;13676;50.168;8.568;2023-03-14T04:13:32;7.18;;;1.73;;
25846;SDS011;13676;50.168;8.568;2023-03-14T04:15:57;11.05;;;2.08;;
25846;SDS011;13676;50.168;8.568;2023-03-14T04:18:23;6.38;;;1.52;;
25846;SDS011;13676;50.168;8.568;2023-03-14T04:20:51;7.95;;;1.58;;
25846;SDS011;13676;50.168;8.568;2023-03-14T04:23:17;4.93;;;1.40;;
25846;SDS011;13676;50.168;8.568;2023-03-14T04:25:43;6.68;;;1.67;;
25846;SDS011;13676;50.168;8.568;2023-03-14T04:28:08;9.48;;;1.90;;
25846;SDS011;13676;50.168;8.568;2023-03-14T04:30:33;6.85;;;1.50;;
25846;SDS011;13676;50.168;8.568;2023-03-14T04:32:59;9.00;;;2.05;;
25846;SDS011;13676;50.168;8.568;2023-03-14T04:35:24;7.97;;;2.42;;
25846;SDS011;13676;50.168;8.568;2023-03-14T04:37:49;7.93;;;2.17;;
25846;SDS011;13676;50.168;8.568;2023-03-14T04:40:17;11.68;;;2.63;;
25846;SDS011;13676;50.168;8.568;2023-03-14T04:42:42;5.93;;;1.92;;
25846;SDS011;13676;50.168;8.568;2023-03-14T04:45:08;5.13;;;1.85;;
25846;SDS011;13676;50.168;8.568;2023-03-14T04:47:34;9.25;;;2.10;;
25846;SDS011;13676;50.168;8.568;2023-03-14T04:49:59;5.80;;;1.75;;
25846;SDS011;13676;50.168;8.568;2023-03-14T04:52:25;7.97;;;1.60;;
25846;SDS011;13676;50.168;8.568;2023-03-14T04:54:50;7.65;;;1.83;;
25846;SDS011;13676;50.168;8.568;2023-03-14T04:57:16;4.88;;;1.23;;
25846;SDS011;13676;50.168;8.568;2023-03-14T04:59:41;4.50;;;1.90;;
25846;SDS011;13676;50.168;8.568;2023-03-14T05:02:06;5.28;;;1.80;;
25846;SDS011;13676;50.168;8.568;2023-03-14T05:04:32;6.28;;;1.65;;
25846;SDS011;13676;50.168;8.568;2023-03-14T05:06:58;4.97;;;1.50;;
25846;SDS011;13676;50.168;8.568;2023-03-14T05:09:24;8.80;;;1.88;;
25846;SDS011;13676;50.168;8.568;2023-03-14T05:11:49;6.07;;;1.83;;
25846;SDS011;13676;50.168;8.568;2023-03-14T05:14:15;5.22;;;1.63;;
25846;SDS011;13676;50.168;8.568;2023-03-14T05:16:40;7.90;;;1.70;;
25846;SDS011;13676;50.168;8.568;2023-03-14T05:19:05;6.47;;;1.30;;
25846;SDS011;13676;50.168;8.568;2023-03-14T05:21:31;3.90;;;1.25;;
25846;SDS011;13676;50.168;8.568;2023-03-14T05:23:56;4.47;;;1.42;;
25846;SDS011;13676;50.168;8.568;2023-03-14T05:26:21;5.80;;;1.52;;
25846;SDS011;13676;50.168;8.568;2023-03-14T05:28:46;3.65;;;1.33;;
25846;SDS011;13676;50.168;8.568;2023-03-14T05:31:12;6.07;;;1.85;;
25846;SDS011;13676;50.168;8.568;2023-03-14T05:33:37;6.50;;;1.63;;
25846;SDS011;13676;50.168;8.568;2023-03-14T05:36:03;3.75;;;1.38;;
25846;SDS011;13676;50.168;8.568;2023-03-14T05:38:28;4.85;;;1.77;;
25846;SDS011;13676;50.168;8.568;2023-03-14T05:40:53;6.85;;;1.35;;
25846;SDS011;13676;50.168;8.568;2023-03-14T05:43:19;4.57;;;1.50;;
25846;SDS011;13676;50.168;8.568;2023-03-14T05:45:44;8.38;;;1.70;;
25846;SDS011;13676;50.168;8.568;2023-03-14T05:48:09;5.43;;;1.20;;
25846;SDS011;13676;50.168;8.568;2023-03-14T05:50:35;5.95;;;1.52;;
25846;SDS011;13676;50.168;8.568;2023-03-14T05:53:00;6.32;;;1.50;;
25846;SDS011;13676;50.168;8.568;2023-03-14T05:55:26;4.05;;;1.20;;
25846;SDS011;13676;50.168;8.568;2023-03-14T05:57:52;4.78;;;1.70;;
25846;SDS011;13676;50.168;8.568;2023-03-14T06:00:18;5.55;;;1.60;;
25846;SDS011;13676;50.168;8.568;2023-03-14T06:02:44;4.68;;;1.35;;
25846;SDS011;13676;50.168;8.568;2023-03-14T06:05:09;2.90;;;1.10;;
25846;SDS011;13676;50.168;8.568;2023-03-14T06:07:34;2.40;;;0.98;;
25846;SDS011;13676;50.168;8.568;2023-03-14T06:10:00;8.15;;;1.35;;
25846;SDS011;13676;50.168;8.568;2023-03-14T06:12:25;3.88;;;1.52;;
25846;SDS011;13676;50.168;8.568;2023-03-14T06:14:50;5.28;;;1.50;;
25846;SDS011;13676;50.168;8.568;2023-03-14T06:17:16;4.57;;;1.30;;
25846;SDS011;13676;50.168;8.568;2023-03-14T06:19:41;5.47;;;1.35;;
25846;SDS011;13676;50.168;8.568;2023-03-14T06:22:06;5.40;;;1.23;;
25846;SDS011;13676;50.168;8.568;2023-03-14T06:24:32;3.58;;;1.20;;
25846;SDS011;13676;50.168;8.568;2023-03-14T06:26:57;6.13;;;1.38;;
25846;SDS011;13676;50.168;8.568;2023-03-14T06:29:23;3.30;;;1.10;;
25846;SDS011;13676;50.168;8.568;2023-03-14T06:31:48;9.52;;;1.50;;
25846;SDS011;13676;50.168;8.568;2023-03-14T06:34:13;3.53;;;1.13;;
25846;SDS011;13676;50.168;8.568;2023-03-14T06:36:39;5.20;;;1.33;;
25846;SDS011;13676;50.168;8.568;2023-03-14T06:39:04;5.07;;;1.40;;
25846;SDS011;13676;50.168;8.568;2023-03-14T06:41:29;5.30;;;1.40;;
25846;SDS011;13676;50.168;8.568;2023-03-14T06:43:55;4.63;;;1.10;;
25846;SDS011;13676;50.168;8.568;2023-03-14T06:46:20;6.95;;;1.55;;
25846;SDS011;13676;50.168;8.568;2023-03-14T06:48:45;5.85;;;1.70;;
25846;SDS011;13676;50.168;8.568;2023-03-14T06:51:11;8.23;;;1.65;;
25846;SDS011;13676;50.168;8.568;2023-03-14T06:53:36;6.90;;;1.60;;
25846;SDS011;13676;50.168;8.568;2023-03-14T06:56:02;9.45;;;1.60;;
25846;SDS011;13676;50.168;8.568;2023-03-14T06:58:27;3.90;;;1.17;;
25846;SDS011;13676;50.168;8.568;2023-03-14T07:00:53;6.35;;;1.60;;
25846;SDS011;13676;50.168;8.568;2023-03-14T07:03:19;5.68;;;1.20;;
25846;SDS011;13676;50.168;8.568;2023-03-14T07:05:45;4.00;;;1.58;;
25846;SDS011;13676;50.168;8.568;2023-03-14T07:08:10;7.32;;;1.67;;
25846;SDS011;13676;50.168;8.568;2023-03-14T07:10:36;5.60;;;1.92;;
25846;SDS011;13676;50.168;8.568;2023-03-14T07:13:01;3.75;;;1.30;;
25846;SDS011;13676;50.168;8.568;2023-03-14T07:15:27;4.63;;;1.17;;
25846;SDS011;13676;50.168;8.568;2023-03-14T07:17:52;7.05;;;1.55;;
25846;SDS011;13676;50.168;8.568;2023-03-14T07:20:17;5.22;;;1.20;;
25846;SDS011;13676;50.168;8.568;2023-03-14T07:22:43;3.53;;;1.15;;
25846;SDS011;13676;50.168;8.568;2023-03-14T07:25:08;3.38;;;1.10;;
25846;SDS011;13676;50.168;8.568;2023-03-14T07:27:37;5.18;;;1.67;;
25846;SDS011;13676;50.168;8.568;2023-03-14T07:30:03;3.40;;;1.30;;
25846;SDS011;13676;50.168;8.568;2023-03-14T07:32:28;4.55;;;1.45;;
25846;SDS011;13676;50.168;8.568;2023-03-14T07:34:54;4.53;;;1.00;;
25846;SDS011;13676;50.168;8.568;2023-03-14T07:37:19;3.80;;;1.30;;
25846;SDS011;13676;50.168;8.568;2023-03-14T07:39:44;5.07;;;1.60;;
25846;SDS011;13676;50.168;8.568;2023-03-14T07:42:10;5.25;;;1.35;;
25846;SDS011;13676;50.168;8.568;2023-03-14T07:44:36;5.03;;;1.10;;
25846;SDS011;13676;50.168;8.568;2023-03-14T07:47:01;5.25;;;1.17;;
25846;SDS011;13676;50.168;8.568;2023-03-14T07:49:26;3.17;;;1.30;;
25846;SDS011;13676;50.168;8.568;2023-03-14T07:51:52;4.97;;;1.35;;
25846;SDS011;13676;50.168;8.568;2023-03-14T07:54:17;5.20;;;1.25;;
25846;SDS011;13676;50.168;8.568;2023-03-14T07:56:43;4.57;;;1.30;;
25846;SDS011;13676;50.168;8.568;2023-03-14T07:59:08;3.80;;;1.38;;
25846;SDS011;13676;50.168;8.568;2023-03-14T08:01:33;5.28;;;1.30;;
25846;SDS011;13676;50.168;8.568;2023-03-14T08:03:59;5.88;;;1.30;;
25846;SDS011;13676;50.168;8.568;2023-03-14T08:06:24;2.80;;;1.00;;
25846;SDS011;13676;50.168;8.568;2023-03-14T08:08:50;2.92;;;1.20;;
25846;SDS011;13676;50.168;8.568;2023-03-14T08:11:15;4.60;;;1.27;;
25846;SDS011;13676;50.168;8.568;2023-03-14T08:13:41;3.50;;;1.20;;
25846;SDS011;13676;50.168;8.568;2023-03-14T08:16:06;5.90;;;1.42;;
25846;SDS011;13676;50.168;8.568;2023-03-14T08:18:32;5.90;;;1.25;;
25846;SDS011;13676;50.168;8.568;2023-03-14T08:20:57;5.63;;;1.67;;
25846;SDS011;13676;50.168;8.568;2023-03-14T08:23:23;5.55;;;1.70;;
25846;SDS011;13676;50.168;8.568;2023-03-14T08:25:48;5.28;;;1.50;;
25846;SDS011;13676;50.168;8.568;2023-03-14T08:28:15;3.63;;;1.10;;
25846;SDS011;13676;50.168;8.568;2023-03-14T08:30:40;3.97;;;1.40;;
25846;SDS011;13676;50.168;8.568;2023-03-14T08:33:06;5.60;;;1.20;;
25846;SDS011;13676;50.168;8.568;2023-03-14T08:35:31;6.15;;;1.20;;
25846;SDS011;13676;50.168;8.568;2023-03-14T08:37:56;6.22;;;1.42;;
25846;SDS011;13676;50.168;8.568;2023-03-14T08:40:22;6.13;;;1.30;;
25846;SDS011;13676;50.168;8.568;2023-03-14T08:42:47;5.57;;;1.40;;
25846;SDS011;13676;50.168;8.568;2023-03-14T08:45:13;5.70;;;1.33;;
25846;SDS011;13676;50.168;8.568;2023-03-14T08:47:41;4.93;;;1.42;;
25846;SDS011;13676;50.168;8.568;2023-03-14T08:50:06;4.72;;;1.55;;
25846;SDS011;13676;50.168;8.568;2023-03-14T08:52:32;5.97;;;1.40;;
25846;SDS011;13676;50.168;8.568;2023-03-14T08:54:58;3.00;;;1.15;;
25846;SDS011;13676;50.168;8.568;2023-03-14T08:57:24;5.18;;;1.65;;
25846;SDS011;13676;50.168;8.568;2023-03-14T08:59:53;7.00;;;1.83;;
25846;SDS011;13676;50.168;8.568;2023-03-14T09:02:21;3.28;;;1.63;;
25846;SDS011;13676;50.168;8.568;2023-03-14T09:04:47;3.30;;;1.35;;
25846;SDS011;13676;50.168;8.568;2023-03-14T09:07:12;4.70;;;1.80;;
25846;SDS011;13676;50.168;8.568;2023-03-14T09:09:37;5.88;;;1.60;;
25846;SDS011;13676;50.168;8.568;2023-03-14T09:12:03;4.53;;;1.67;;
25846;SDS011;13676;50.168;8.568;2023-03-14T09:14:29;4.45;;;1.55;;
25846;SDS011;13676;50.168;8.568;2023-03-14T09:16:55;7.07;;;1.70;;
25846;SDS011;13676;50.168;8.568;2023-03-14T09:19:20;3.47;;;1.55;;
25846;SDS011;13676;50.168;8.568;2023-03-14T09:21:46;3.45;;;1.42;;
25846;SDS011;13676;50.168;8.568;2023-03-14T09:24:11;3.60;;;1.35;;
25846;SDS011;13676;50.168;8.568;2023-03-14T09:26:36;4.65;;;1.35;;
25846;SDS011;13676;50.168;8.568;2023-03-14T09:29:02;2.47;;;1.45;;
25846;SDS011;13676;50.168;8.568;2023-03-14T09:31:28;5.78;;;1.52;;
25846;SDS011;13676;50.168;8.568;2023-03-14T09:33:54;7.70;;;1.50;;
25846;SDS011;13676;50.168;8.568;2023-03-14T09:36:19;4.75;;;1.40;;
25846;SDS011;13676;50.168;8.568;2023-03-14T09:38:45;6.10;;;1.40;;
25846;SDS011;13676;50.168;8.568;2023-03-14T09:41:12;5.75;;;1.70;;
25846;SDS011;13676;50.168;8.568;2023-03-14T09:43:43;2.20;;;1.20;;
25846;SDS011;13676;50.168;8.568;2023-03-14T09:48:36;2.67;;;1.52;;
25846;SDS011;13676;50.168;8.568;2023-03-14T09:51:03;3.00;;;1.50;;
25846;SDS011;13676;50.168;8.568;2023-03-14T09:53:39;6.50;;;1.33;;
25846;SDS011;13676;50.168;8.568;2023-03-14T09:56:09;4.40;;;1.45;;
25846;SDS011;13676;50.168;8.568;2023-03-14T09:58:37;3.30;;;1.75;;
25846;SDS011;13676;50.168;8.568;2023-03-14T10:01:07;5.68;;;1.40;;
25846;SDS011;13676;50.168;8.568;2023-03-14T10:03:36;2.55;;;1.50;;
25846;SDS011;13676;50.168;8.568;2023-03-14T10:06:01;2.33;;;1.40;;
25846;SDS011;13676;50.168;8.568;2023-03-14T10:08:27;4.57;;;1.63;;
25846;SDS011;13676;50.168;8.568;2023-03-14T10:10:52;1.95;;;1.50;;
25846;SDS011;13676;50.168;8.568;2023-03-14T10:13:20;5.07;;;1.60;;
25846;SDS011;13676;50.168;8.568;2023-03-14T10:18:23;3.70;;;1.73;;
25846;SDS011;13676;50.168;8.568;2023-03-14T10:20:49;2.67;;;1.85;;
25846;SDS011;13676;50.168;8.568;2023-03-14T10:23:28;1.90;;;1.30;;
25846;SDS011;13676;50.168;8.568;2023-03-14T10:25:59;3.38;;;1.20;;
25846;SDS011;13676;50.168;8.568;2023-03-14T10:28:32;3.67;;;1.50;;
25846;SDS011;13676;50.168;8.568;2023-03-14T10:30:59;4.70;;;1.60;;
25846;SDS011;13676;50.168;8.568;2023-03-14T10:33:26;8.32;;;1.50;;
25846;SDS011;13676;50.168;8.568;2023-03-14T10:36:00;6.63;;;1.63;;
25846;SDS011;13676;50.168;8.568;2023-03-14T10:38:28;2.10;;;1.23;;
25846;SDS011;13676;50.168;8.568;2023-03-14T10:41:14;2.55;;;1.30;;
25846;SDS011;13676;50.168;8.568;2023-03-14T10:43:50;8.18;;;1.45;;
25846;SDS011;13676;50.168;8.568;2023-03-14T10:46:17;6.95;;;1.40;;
25846;SDS011;13676;50.168;8.568;2023-03-14T10:48:44;3.15;;;1.40;;
25846;SDS011;13676;50.168;8.568;2023-03-14T10:56:12;2.08;;;1.50;;
25846;SDS011;13676;50.168;8.568;2023-03-14T10:58:40;4.30;;;1.50;;
25846;SDS011;13676;50.168;8.568;2023-03-14T11:06:47;3.22;;;1.40;;
25846;SDS011;13676;50.168;8.568;2023-03-14T11:14:22;6.20;;;1.30;;
25846;SDS011;13676;50.168;8.568;2023-03-14T11:16:56;4.38;;;1.88;;
25846;SDS011;13676;50.168;8.568;2023-03-14T11:22:17;3.17;;;1.42;;
25846;SDS011;13676;50.168;8.568;2023-03-14T11:32:13;2.55;;;1.90;;
25846;SDS011;13676;50.168;8.568;2023-03-14T11:34:51;4.13;;;2.08;;
25846;SDS011;13676;50.168;8.568;2023-03-14T11:40:02;5.13;;;2.20;;
25846;SDS011;13676;50.168;8.568;2023-03-14T11:42:36;4.28;;;1.85;;
25846;SDS011;13676;50.168;8.568;2023-03-14T11:45:02;3.33;;;2.35;;
25846;SDS011;13676;50.168;8.568;2023-03-14T11:47:39;3.03;;;2.00;;
25846;SDS011;13676;50.168;8.568;2023-03-14T11:50:17;2.90;;;1.95;;
25846;SDS011;13676;50.168;8.568;2023-03-14T11:55:19;5.75;;;2.20;;
25846;SDS011;13676;50.168;8.568;2023-03-14T11:57:47;3.33;;;2.15;;
25846;SDS011;13676;50.168;8.568;2023-03-14T12:10:50;1.15;;;0.60;;
25846;SDS011;13676;50.168;8.568;2023-03-14T12:13:17;0.52;;;0.40;;
25846;SDS011;13676;50.168;8.568;2023-03-14T12:15:50;1.08;;;0.40;;
25846;SDS011;13676;50.168;8.568;2023-03-14T12:18:35;0.47;;;0.30;;
25846;SDS011;13676;50.168;8.568;2023-03-14T12:21:08;0.98;;;0.30;;
25846;SDS011;13676;50.168;8.568;2023-03-14T12:26:20;0.30;;;0.30;;
25846;SDS011;13676;50.168;8.568;2023-03-14T12:42:09;1.10;;;0.45;;
25846;SDS011;13676;50.168;8.568;2023-03-14T12:44:38;0.30;;;0.30;;
25846;SDS011;13676;50.168;8.568;2023-03-14T12:52:19;2.83;;;0.40;;
25846;SDS011;13676;50.168;8.568;2023-03-14T12:59:58;1.35;;;0.60;;
25846;SDS011;13676;50.168;8.568;2023-03-14T13:05:22;1.27;;;0.50;;
25846;SDS011;13676;50.168;8.568;2023-03-14T13:10:24;1.83;;;0.77;;
25846;SDS011;13676;50.168;8.568;2023-03-14T13:15:55;1.55;;;1.13;;
25846;SDS011;13676;50.168;8.568;2023-03-14T13:21:02;3.90;;;0.70;;
25846;SDS011;13676;50.168;8.568;2023-03-14T13:23:32;2.08;;;0.90;;
25846;SDS011;13676;50.168;8.568;2023-03-14T13:25:59;0.70;;;0.70;;
25846;SDS011;13676;50.168;8.568;2023-03-14T13:28:25;1.95;;;0.80;;
25846;SDS011;13676;50.168;8.568;2023-03-14T13:30:54;1.35;;;0.98;;
25846;SDS011;13676;50.168;8.568;2023-03-14T13:33:22;0.90;;;0.82;;
25846;SDS011;13676;50.168;8.568;2023-03-14T13:35:49;1.15;;;0.65;;
25846;SDS011;13676;50.168;8.568;2023-03-14T13:38:21;2.38;;;1.10;;
25846;SDS011;13676;50.168;8.568;2023-03-14T13:40:48;0.82;;;0.75;;
25846;SDS011;13676;50.168;8.568;2023-03-14T13:43:16;0.57;;;0.57;;
25846;SDS011;13676;50.168;8.568;2023-03-14T13:45:45;0.70;;;0.47;;
25846;SDS011;13676;50.168;8.568;2023-03-14T13:48:14;0.40;;;0.40;;
25846;SDS011;13676;50.168;8.568;2023-03-14T13:50:44;1.17;;;0.57;;
25846;SDS011;13676;50.168;8.568;2023-03-14T13:53:11;1.10;;;0.50;;
25846;SDS011;13676;50.168;8.568;2023-03-14T13:55:36;0.40;;;0.40;;
25846;SDS011;13676;50.168;8.568;2023-03-14T13:58:02;0.75;;;0.60;;
25846;SDS011;13676;50.168;8.568;2023-03-14T14:00:27;1.23;;;0.70;;
25846;SDS011;13676;50.168;8.568;2023-03-14T14:02:54;0.75;;;0.70;;
25846;SDS011;13676;50.168;8.568;2023-03-14T14:05:21;1.42;;;0.47;;
25846;SDS011;13676;50.168;8.568;2023-03-14T14:07:48;1.85;;;1.08;;
25846;SDS011;13676;50.168;8.568;2023-03-14T14:10:14;1.52;;;0.73;;
25846;SDS011;13676;50.168;8.568;2023-03-14T14:12:43;0.60;;;0.50;;
25846;SDS011;13676;50.168;8.568;2023-03-14T14:17:47;1.17;;;0.70;;
25846;SDS011;13676;50.168;8.568;2023-03-14T14:20:20;0.60;;;0.40;;
25846;SDS011;13676;50.168;8.568;2023-03-14T14:22:46;0.73;;;0.40;;
25846;SDS011;13676;50.168;8.568;2023-03-14T14:25:12;0.98;;;0.50;;
25846;SDS011;13676;50.168;8.568;2023-03-14T14:27:41;1.48;;;0.55;;
25846;SDS011;13676;50.168;8.568;2023-03-14T14:32:42;1.63;;;0.47;;
25846;SDS011;13676;50.168;8.568;2023-03-14T14:35:09;1.00;;;0.60;;
25846;SDS011;13676;50.168;8.568;2023-03-14T14:37:42;0.55;;;0.45;;
25846;SDS011;13676;50.168;8.568;2023-03-14T14:40:19;0.93;;;0.50;;
25846;SDS011;13676;50.168;8.568;2023-03-14T14:42:46;1.02;;;0.57;;
25846;SDS011;13676;50.168;8.568;2023-03-14T14:45:23;2.45;;;0.73;;
25846;SDS011;13676;50.168;8.568;2023-03-14T14:47:50;2.05;;;1.10;;
25846;SDS011;13676;50.168;8.568;2023-03-14T14:52:56;0.73;;;0.60;;
25846;SDS011;13676;50.168;8.568;2023-03-14T14:55:22;1.73;;;0.80;;
25846;SDS011;13676;50.168;8.568;2023-03-14T14:57:51;1.67;;;0.70;;
25846;SDS011;13676;50.168;8.568;2023-03-14T15:02:48;1.42;;;0.80;;
25846;SDS011;13676;50.168;8.568;2023-03-14T15:05:15;1.20;;;0.80;;
25846;SDS011;13676;50.168;8.568;2023-03-14T15:07:42;1.40;;;1.08;;
25846;SDS011;13676;50.168;8.568;2023-03-14T15:10:11;1.00;;;0.90;;
25846;SDS011;13676;50.168;8.568;2023-03-14T15:12:38;1.17;;;0.80;;
25846;SDS011;13676;50.168;8.568;2023-03-14T15:17:30;1.15;;;1.00;;
25846;SDS011;13676;50.168;8.568;2023-03-14T15:19:56;1.80;;;1.05;;
25846;SDS011;13676;50.168;8.568;2023-03-14T15:22:23;1.08;;;0.98;;
25846;SDS011;13676;50.168;8.568;2023-03-14T15:27:23;2.95;;;0.98;;
25846;SDS011;13676;50.168;8.568;2023-03-14T15:29:48;1.45;;;0.73;;
25846;SDS011;13676;50.168;8.568;2023-03-14T15:32:15;2.05;;;0.90;;
25846;SDS011;13676;50.168;8.568;2023-03-14T15:34:41;3.17;;;0.70;;
25846;SDS011;13676;50.168;8.568;2023-03-14T15:37:14;1.80;;;0.93;;
25846;SDS011;13676;50.168;8.568;2023-03-14T15:39:41;1.17;;;0.70;;
25846;SDS011;13676;50.168;8.568;2023-03-14T15:42:07;1.00;;;0.70;;
25846;SDS011;13676;50.168;8.568;2023-03-14T15:44:32;1.35;;;0.70;;
25846;SDS011;13676;50.168;8.568;2023-03-14T15:46:57;1.25;;;0.90;;
25846;SDS011;13676;50.168;8.568;2023-03-14T15:49:23;1.15;;;0.95;;
25846;SDS011;13676;50.168;8.568;2023-03-14T15:51:48;1.92;;;0.90;;
25846;SDS011;13676;50.168;8.568;2023-03-14T15:54:14;1.05;;;0.55;;
25846;SDS011;13676;50.168;8.568;2023-03-14T15:56:39;1.38;;;0.73;;
25846;SDS011;13676;50.168;8.568;2023-03-14T15:59:04;0.93;;;0.73;;
25846;SDS011;13676;50.168;8.568;2023-03-14T16:01:29;1.05;;;0.80;;
25846;SDS011;13676;50.168;8.568;2023-03-14T16:03:55;0.80;;;0.80;;
25846;SDS011;13676;50.168;8.568;2023-03-14T16:06:20;1.95;;;0.98;;
25846;SDS011;13676;50.168;8.568;2023-03-14T16:08:46;1.20;;;0.70;;
25846;SDS011;13676;50.168;8.568;2023-03-14T16:11:12;1.20;;;0.52;;
25846;SDS011;13676;50.168;8.568;2023-03-14T16:13:39;0.75;;;0.50;;
25846;SDS011;13676;50.168;8.568;2023-03-14T16:16:05;0.85;;;0.50;;
25846;SDS011;13676;50.168;8.568;2023-03-14T16:18:32;3.28;;;0.93;;
25846;SDS011;13676;50.168;8.568;2023-03-14T16:23:34;0.50;;;0.50;;
25846;SDS011;13676;50.168;8.568;2023-03-14T16:26:02;0.50;;;0.50;;
25846;SDS011;13676;50.168;8.568;2023-03-14T16:28:29;2.15;;;0.65;;
25846;SDS011;13676;50.168;8.568;2023-03-14T16:31:01;0.45;;;0.45;;
25846;SDS011;13676;50.168;8.568;2023-03-14T16:33:28;0.80;;;0.70;;